Time;durP1;ratioP1;P1;durP2;ratioP2;P2;SDS_P1;SDS_P2;PMS_P1;PMS_P2;Temp;Humidity;BMP_temperature;BMP_pressure;BME280_temperature;BME280_humidity;BME280_pressure;Samples;Min_cycle;Max_cycle;Signal;HPM_P1;HPM_P2
2022/10/12 00:00:23;;;;;;;21.73;5.45;;;;;;;;;;1029697;28;20034;-73
2022/10/12 00:00:53;;;;;;;13.90;5.45;;;;;;;;;;1029636;28;20028;-73
2022/10/12 00:01:24;;;;;;;12.45;6.55;;;;;;;;;;1029655;28;20030;-73
2022/10/12 00:01:55;;;;;;;15.60;5.20;;;;;;;;;;1029498;28;20033;-73
2022/10/12 00:02:25;;;;;;;14.63;5.32;;;;;;;;;;1030038;28;20026;-73
2022/10/12 00:02:56;;;;;;;11.80;6.00;;;;;;;;;;1029581;28;20018;-73
2022/10/12 00:03:27;;;;;;;20.48;6.55;;;;;;;;;;1029334;28;20018;-73
2022/10/12 00:03:57;;;;;;;13.10;5.65;;;;;;;;;;1029430;28;20027;-73
2022/10/12 00:04:28;;;;;;;13.18;5.15;;;;;;;;;;1024420;28;20034;-73
2022/10/12 00:04:58;;;;;;;11.80;4.85;;;;;;;;;;1029444;28;20360;-73
2022/10/12 00:05:29;;;;;;;11.82;5.18;;;;;;;;;;1029193;28;20129;-73
2022/10/12 00:06:01;;;;;;;13.32;5.65;;;;;;;;;;1029366;28;20455;-73
2022/10/12 00:06:31;;;;;;;8.23;4.70;;;;;;;;;;1029260;28;20022;-73
2022/10/12 00:07:02;;;;;;;22.42;6.40;;;;;;;;;;1029789;28;20018;-73
2022/10/12 00:07:32;;;;;;;20.92;5.25;;;;;;;;;;1029606;28;20041;-73
2022/10/12 00:08:03;;;;;;;12.98;6.18;;;;;;;;;;1029249;28;20022;-74
2022/10/12 00:08:34;;;;;;;12.77;5.57;;;;;;;;;;1029673;28;20069;-73
2022/10/12 00:09:05;;;;;;;19.77;5.65;;;;;;;;;;1029391;28;20029;-73
2022/10/12 00:09:36;;;;;;;12.93;5.88;;;;;;;;;;1028282;28;20049;-73
2022/10/12 00:10:06;;;;;;;21.42;5.93;;;;;;;;;;1030029;28;20038;-73
2022/10/12 00:10:40;;;;;;;17.75;5.63;;;;;;;;;;1029680;28;20038;-73
2022/10/12 00:11:13;;;;;;;17.45;5.90;;;;;;;;;;1028829;28;20493;-73
2022/10/12 00:11:43;;;;;;;18.30;5.88;;;;;;;;;;1029906;28;20019;-73
2022/10/12 00:12:14;;;;;;;11.77;4.70;;;;;;;;;;1029635;28;20031;-74
2022/10/12 00:12:44;;;;;;;20.33;6.30;;;;;;;;;;1029865;28;20022;-73
2022/10/12 00:13:15;;;;;;;17.00;7.38;;;;;;;;;;1028907;28;20025;-73
2022/10/12 00:13:46;;;;;;;25.35;7.25;;;;;;;;;;1029377;28;20562;-73
2022/10/12 00:14:16;;;;;;;34.63;6.47;;;;;;;;;;1029473;28;20034;-73
2022/10/12 00:14:47;;;;;;;18.10;5.05;;;;;;;;;;1029597;28;20057;-73
2022/10/12 00:15:17;;;;;;;14.48;4.95;;;;;;;;;;1029119;28;20710;-73
2022/10/12 00:15:48;;;;;;;16.95;4.55;;;;;;;;;;1029773;28;20422;-72
2022/10/12 00:16:20;;;;;;;17.02;5.32;;;;;;;;;;1029650;28;20475;-73
2022/10/12 00:16:50;;;;;;;23.48;5.53;;;;;;;;;;1028963;28;20639;-73
2022/10/12 00:17:21;;;;;;;18.35;5.68;;;;;;;;;;1028285;28;20022;-73
2022/10/12 00:17:52;;;;;;;21.65;5.22;;;;;;;;;;1028246;28;20077;-73
2022/10/12 00:18:22;;;;;;;12.20;5.25;;;;;;;;;;1029602;28;20022;-73
2022/10/12 00:18:54;;;;;;;14.00;5.38;;;;;;;;;;1028747;28;20022;-73
2022/10/12 00:19:25;;;;;;;13.57;4.75;;;;;;;;;;1029352;28;20545;-73
2022/10/12 00:19:55;;;;;;;14.05;5.00;;;;;;;;;;1029835;28;20031;-74
2022/10/12 00:20:26;;;;;;;24.33;6.72;;;;;;;;;;1029516;28;20022;-73
2022/10/12 00:21:15;;;;;;;10.75;6.60;;;;;;;;;;1029694;28;20011;-73
2022/10/12 00:21:46;;;;;;;15.93;4.83;;;;;;;;;;1029193;28;20093;-73
2022/10/12 00:22:16;;;;;;;13.77;5.57;;;;;;;;;;1029340;28;20341;-73
2022/10/12 00:22:47;;;;;;;19.67;6.20;;;;;;;;;;1029016;28;20023;-73
2022/10/12 00:23:17;;;;;;;9.65;5.40;;;;;;;;;;1028480;28;20034;-73
2022/10/12 00:23:48;;;;;;;14.15;5.90;;;;;;;;;;1026060;28;20467;-73
2022/10/12 00:24:19;;;;;;;12.57;6.22;;;;;;;;;;1025503;28;20790;-73
2022/10/12 00:24:51;;;;;;;14.48;4.95;;;;;;;;;;1029953;28;20073;-73
2022/10/12 00:25:21;;;;;;;24.23;5.22;;;;;;;;;;1029370;28;20038;-73
2022/10/12 00:25:52;;;;;;;11.00;5.97;;;;;;;;;;1020866;28;20047;-73
2022/10/12 00:26:23;;;;;;;19.48;6.43;;;;;;;;;;1029751;28;20018;-73
2022/10/12 00:26:53;;;;;;;12.73;5.45;;;;;;;;;;1030716;28;20423;-73
2022/10/12 00:27:24;;;;;;;19.30;5.22;;;;;;;;;;1029537;28;20038;-72
2022/10/12 00:27:54;;;;;;;13.35;6.00;;;;;;;;;;1029573;28;20026;-73
2022/10/12 00:28:25;;;;;;;16.73;5.90;;;;;;;;;;1030604;28;20041;-72
2022/10/12 00:28:57;;;;;;;10.30;5.45;;;;;;;;;;1029837;28;20483;-73
2022/10/12 00:29:27;;;;;;;24.35;5.50;;;;;;;;;;1029516;28;20035;-73
2022/10/12 00:29:58;;;;;;;25.13;6.68;;;;;;;;;;1029726;28;20457;-73
2022/10/12 00:30:29;;;;;;;13.77;4.68;;;;;;;;;;1029121;28;20023;-73
2022/10/12 00:31:00;;;;;;;26.42;6.00;;;;;;;;;;1029950;28;20031;-73
2022/10/12 00:31:31;;;;;;;18.02;5.55;;;;;;;;;;1029168;28;20022;-74
2022/10/12 00:32:02;;;;;;;17.60;6.57;;;;;;;;;;1028654;28;20033;-73
2022/10/12 00:32:32;;;;;;;28.52;13.93;;;;;;;;;;1029310;28;20034;-74
2022/10/12 00:33:03;;;;;;;52.75;21.10;;;;;;;;;;1029371;28;20033;-73
2022/10/12 00:33:33;;;;;;;10.43;6.63;;;;;;;;;;1029182;28;20022;-73
2022/10/12 00:34:04;;;;;;;21.73;10.40;;;;;;;;;;1029189;28;20018;-73
2022/10/12 00:34:34;;;;;;;35.72;18.33;;;;;;;;;;1029674;28;20026;-73
2022/10/12 00:35:05;;;;;;;28.77;12.98;;;;;;;;;;1029241;28;20105;-73
2022/10/12 00:35:36;;;;;;;27.50;11.85;;;;;;;;;;1029390;28;20030;-73
2022/10/12 00:36:16;;;;;;;27.67;15.30;;;;;;;;;;1029175;28;20078;-73
2022/10/12 00:36:47;;;;;;;29.90;12.65;;;;;;;;;;1027808;28;20521;-73
2022/10/12 00:37:18;;;;;;;29.88;10.77;;;;;;;;;;1029111;28;20037;-73
2022/10/12 00:37:52;;;;;;;29.42;12.57;;;;;;;;;;1029194;28;20029;-73
2022/10/12 00:38:23;;;;;;;24.80;10.18;;;;;;;;;;1029015;28;20029;-73
2022/10/12 00:38:54;;;;;;;31.70;13.15;;;;;;;;;;1029674;28;20422;-73
2022/10/12 00:39:24;;;;;;;37.97;14.10;;;;;;;;;;1028275;28;20034;-73
2022/10/12 00:39:55;;;;;;;31.45;15.07;;;;;;;;;;1029917;28;20076;-73
2022/10/12 00:40:26;;;;;;;38.05;15.07;;;;;;;;;;1029606;28;20121;-73
2022/10/12 00:40:56;;;;;;;33.08;15.15;;;;;;;;;;1029724;28;20030;-73
2022/10/12 00:41:29;;;;;;;29.67;14.05;;;;;;;;;;1028872;28;20026;-73
2022/10/12 00:42:00;;;;;;;33.85;11.18;;;;;;;;;;1029155;28;20504;-73
2022/10/12 00:42:30;;;;;;;28.15;10.98;;;;;;;;;;1030030;28;20031;-73
2022/10/12 00:43:01;;;;;;;26.38;12.38;;;;;;;;;;1028426;28;20398;-73
2022/10/12 00:43:34;;;;;;;24.67;10.93;;;;;;;;;;1029564;28;20487;-73
2022/10/12 00:44:23;;;;;;;24.42;11.05;;;;;;;;;;1028813;28;20061;-74
2022/10/12 00:44:54;;;;;;;19.48;10.52;;;;;;;;;;1029694;28;20034;-73
2022/10/12 00:45:25;;;;;;;22.90;12.15;;;;;;;;;;1029330;28;20541;-73
2022/10/12 00:45:57;;;;;;;23.77;10.50;;;;;;;;;;1029248;28;20534;-73
2022/10/12 00:46:32;;;;;;;17.13;8.02;;;;;;;;;;1029225;28;20128;-73
2022/10/12 00:47:06;;;;;;;33.08;15.60;;;;;;;;;;1029232;28;20014;-74
2022/10/12 00:47:38;;;;;;;23.23;12.77;;;;;;;;;;1029313;28;20113;-73
2022/10/12 00:48:09;;;;;;;31.80;13.40;;;;;;;;;;1029356;28;20015;-73
2022/10/12 00:48:40;;;;;;;19.88;11.98;;;;;;;;;;1029478;28;20468;-73
2022/10/12 00:49:19;;;;;;;26.63;11.43;;;;;;;;;;1028885;28;20014;-73
2022/10/12 00:49:57;;;;;;;20.45;11.13;;;;;;;;;;1029197;28;20022;-73
2022/10/12 00:50:31;;;;;;;33.55;13.50;;;;;;;;;;1029166;28;20035;-73
2022/10/12 00:51:02;;;;;;;27.02;12.70;;;;;;;;;;1029525;28;20022;-73
2022/10/12 00:51:33;;;;;;;22.30;9.77;;;;;;;;;;1028338;28;20022;-73
2022/10/12 00:52:05;;;;;;;20.90;10.23;;;;;;;;;;1029199;28;20076;-73
2022/10/12 00:52:39;;;;;;;20.92;9.95;;;;;;;;;;1029138;28;20018;-74
2022/10/12 00:53:15;;;;;;;27.45;11.95;;;;;;;;;;1028872;28;20027;-74
2022/10/12 00:53:59;;;;;;;27.60;10.90;;;;;;;;;;1029529;28;20383;-73
2022/10/12 00:54:36;;;;;;;19.88;10.30;;;;;;;;;;1029562;28;20113;-74
2022/10/12 00:55:07;;;;;;;24.17;9.82;;;;;;;;;;1029608;28;20025;-74
2022/10/12 00:55:39;;;;;;;17.95;9.38;;;;;;;;;;1029445;28;20056;-74
2022/10/12 00:56:17;;;;;;;19.38;8.95;;;;;;;;;;1029559;28;20483;-74
2022/10/12 00:56:50;;;;;;;20.85;8.65;;;;;;;;;;1029064;28;20022;-73
2022/10/12 00:57:21;;;;;;;17.38;6.22;;;;;;;;;;1029066;28;20018;-74
2022/10/12 00:57:53;;;;;;;16.17;7.90;;;;;;;;;;1029182;28;20026;-74
2022/10/12 00:58:24;;;;;;;26.95;9.23;;;;;;;;;;1029161;28;20227;-74
2022/10/12 00:58:57;;;;;;;19.35;9.02;;;;;;;;;;1029830;28;20503;-73
2022/10/12 00:59:32;;;;;;;24.02;10.75;;;;;;;;;;1030000;28;20053;-73
2022/10/12 01:00:06;;;;;;;22.02;9.73;;;;;;;;;;1029644;28;20022;-74
2022/10/12 01:00:37;;;;;;;19.52;8.13;;;;;;;;;;1029489;28;20030;-74
2022/10/12 01:01:09;;;;;;;21.08;10.35;;;;;;;;;;1028677;28;20101;-73
2022/10/12 01:01:42;;;;;;;31.45;7.85;;;;;;;;;;1029127;28;20510;-73
2022/10/12 01:02:13;;;;;;;24.67;10.15;;;;;;;;;;1029335;28;20022;-73
2022/10/12 01:02:46;;;;;;;29.25;9.23;;;;;;;;;;1030701;28;20126;-74
2022/10/12 01:03:19;;;;;;;22.17;9.35;;;;;;;;;;1029897;28;20015;-74
2022/10/12 01:03:50;;;;;;;27.65;8.93;;;;;;;;;;1029866;28;20081;-74
2022/10/12 01:04:21;;;;;;;18.35;8.07;;;;;;;;;;1028607;28;20113;-74
2022/10/12 01:04:52;;;;;;;31.73;8.40;;;;;;;;;;1029359;28;20070;-75
2022/10/12 01:05:23;;;;;;;27.02;8.52;;;;;;;;;;1029063;28;20573;-74
2022/10/12 01:05:53;;;;;;;19.02;7.75;;;;;;;;;;1029252;28;20030;-75
2022/10/12 01:06:24;;;;;;;26.23;10.02;;;;;;;;;;1028369;28;20479;-74
2022/10/12 01:06:54;;;;;;;18.05;8.93;;;;;;;;;;1028559;28;20022;-74
2022/10/12 01:07:25;;;;;;;17.27;7.97;;;;;;;;;;1029092;28;20451;-74
2022/10/12 01:07:56;;;;;;;25.98;8.13;;;;;;;;;;1028871;28;20153;-74
2022/10/12 01:08:27;;;;;;;21.05;8.75;;;;;;;;;;1029517;28;20561;-74
2022/10/12 01:08:58;;;;;;;22.77;9.45;;;;;;;;;;1030466;28;20031;-74
2022/10/12 01:09:29;;;;;;;33.17;9.23;;;;;;;;;;1029674;28;20058;-74
2022/10/12 01:09:59;;;;;;;24.17;9.70;;;;;;;;;;1028085;28;20034;-75
2022/10/12 01:10:30;;;;;;;19.23;8.13;;;;;;;;;;1029774;28;20067;-74
2022/10/12 01:11:00;;;;;;;18.98;7.95;;;;;;;;;;1028045;28;20018;-74
2022/10/12 01:11:31;;;;;;;26.45;8.82;;;;;;;;;;1029791;28;20076;-74
2022/10/12 01:12:04;;;;;;;17.27;9.02;;;;;;;;;;1028777;28;20031;-74
2022/10/12 01:12:35;;;;;;;20.02;9.30;;;;;;;;;;1029153;28;20058;-74
2022/10/12 01:13:06;;;;;;;20.98;8.27;;;;;;;;;;1027776;28;20077;-74
2022/10/12 01:13:37;;;;;;;17.40;8.27;;;;;;;;;;1026444;28;20078;-74
2022/10/12 01:14:07;;;;;;;30.35;9.63;;;;;;;;;;1030396;28;20494;-74
2022/10/12 01:14:38;;;;;;;26.40;11.35;;;;;;;;;;1025317;28;20372;-74
2022/10/12 01:15:09;;;;;;;30.33;10.60;;;;;;;;;;1025557;28;20129;-74
2022/10/12 01:15:44;;;;;;;22.02;9.25;;;;;;;;;;1028200;28;20217;-74
2022/10/12 01:16:33;;;;;;;31.95;8.68;;;;;;;;;;1028650;28;20561;-75
2022/10/12 01:17:12;;;;;;;22.23;9.52;;;;;;;;;;1029370;28;20022;-74
2022/10/12 01:17:55;;;;;;;23.67;9.63;;;;;;;;;;1027092;28;20082;-74
2022/10/12 01:18:33;;;;;;;19.92;9.50;;;;;;;;;;1027956;28;20027;-74
2022/10/12 01:19:06;;;;;;;23.00;10.00;;;;;;;;;;1029553;28;20078;-74
2022/10/12 01:19:50;;;;;;;21.30;9.13;;;;;;;;;;1030146;28;20379;-74
2022/10/12 01:20:21;;;;;;;31.15;9.85;;;;;;;;;;1030321;28;20035;-74
2022/10/12 01:21:30;;;;;;;27.85;8.60;;;;;;;;;;1027295;28;20057;-74
2022/10/12 01:22:02;;;;;;;16.95;7.38;;;;;;;;;;1019706;28;20031;-74
2022/10/12 01:22:36;;;;;;;28.83;9.93;;;;;;;;;;1018563;29;20019;-74
2022/10/12 01:23:15;;;;;;;29.00;10.88;;;;;;;;;;1021584;28;20027;-73
2022/10/12 01:24:00;;;;;;;24.15;10.93;;;;;;;;;;1022437;29;20020;-74
2022/10/12 01:24:39;;;;;;;28.00;10.02;;;;;;;;;;1025974;28;20436;-74
2022/10/12 01:25:19;;;;;;;22.98;9.82;;;;;;;;;;1021861;29;20019;-74
2022/10/12 01:25:57;;;;;;;21.40;9.38;;;;;;;;;;1024792;28;20027;-75
2022/10/12 01:26:31;;;;;;;35.00;10.98;;;;;;;;;;1023568;28;20032;-75
2022/10/12 01:27:27;;;;;;;31.58;10.30;;;;;;;;;;1023583;28;20046;-75
2022/10/12 01:28:08;;;;;;;22.95;8.30;;;;;;;;;;1014206;29;20028;-74
2022/10/12 01:28:53;;;;;;;33.80;10.85;;;;;;;;;;1018279;28;20025;-74
2022/10/12 01:29:36;;;;;;;22.50;8.95;;;;;;;;;;1024060;28;20091;-74
2022/10/12 01:30:15;;;;;;;20.23;9.32;;;;;;;;;;1029775;28;20043;-74
2022/10/12 01:30:50;;;;;;;22.15;8.70;;;;;;;;;;1029141;28;20503;-73
2022/10/12 01:31:25;;;;;;;36.42;11.10;;;;;;;;;;1028131;28;20027;-74
2022/10/12 01:32:08;;;;;;;24.13;11.15;;;;;;;;;;1028385;28;20097;-74
2022/10/12 01:32:47;;;;;;;21.05;9.38;;;;;;;;;;1028389;28;20394;-74
2022/10/12 01:33:24;;;;;;;21.02;10.80;;;;;;;;;;1027708;28;20121;-74
2022/10/12 01:34:15;;;;;;;32.72;11.15;;;;;;;;;;1028100;28;20027;-74
2022/10/12 01:34:52;;;;;;;39.15;13.68;;;;;;;;;;1027807;28;20066;-74
2022/10/12 01:35:22;;;;;;;31.08;11.75;;;;;;;;;;1030412;28;20117;-74
2022/10/12 01:35:56;;;;;;;44.10;12.93;;;;;;;;;;1030688;28;20029;-74
2022/10/12 01:36:36;;;;;;;46.63;13.85;;;;;;;;;;1027198;28;20023;-74
2022/10/12 01:37:11;;;;;;;30.20;11.93;;;;;;;;;;1029977;28;20030;-74
2022/10/12 01:37:44;;;;;;;38.15;11.77;;;;;;;;;;1030658;28;20038;-74
2022/10/12 01:38:17;;;;;;;39.65;12.70;;;;;;;;;;1028634;28;20019;-74
2022/10/12 01:39:03;;;;;;;23.33;11.27;;;;;;;;;;1025638;28;20038;-74
2022/10/12 01:39:37;;;;;;;42.30;11.30;;;;;;;;;;1024584;28;20031;-74
2022/10/12 01:40:12;;;;;;;33.53;11.85;;;;;;;;;;1028963;28;20022;-74
2022/10/12 01:40:50;;;;;;;32.13;10.50;;;;;;;;;;1029235;28;20049;-74
2022/10/12 01:41:35;;;;;;;26.08;10.60;;;;;;;;;;1029298;28;20037;-76
2022/10/12 01:42:08;;;;;;;35.20;12.75;;;;;;;;;;1029683;28;20054;-74
2022/10/12 01:42:40;;;;;;;38.85;11.23;;;;;;;;;;1028997;28;20113;-74
2022/10/12 01:43:11;;;;;;;40.30;15.32;;;;;;;;;;1028763;28;20500;-74
2022/10/12 01:43:43;;;;;;;34.90;12.30;;;;;;;;;;1024841;28;20093;-74
2022/10/12 01:44:21;;;;;;;30.92;9.95;;;;;;;;;;1025665;28;20031;-74
2022/10/12 01:44:59;;;;;;;32.88;10.82;;;;;;;;;;1024252;28;20027;-74
2022/10/12 01:45:30;;;;;;;25.58;10.43;;;;;;;;;;1028500;28;20019;-74
2022/10/12 01:46:16;;;;;;;20.95;9.63;;;;;;;;;;1029542;28;20022;-75
2022/10/12 01:46:47;;;;;;;24.23;9.00;;;;;;;;;;1028786;28;20030;-73
2022/10/12 01:47:18;;;;;;;24.88;9.60;;;;;;;;;;1028011;28;20031;-73
2022/10/12 01:47:51;;;;;;;30.33;11.35;;;;;;;;;;1025330;28;20442;-74
2022/10/12 01:48:22;;;;;;;40.80;10.70;;;;;;;;;;1024862;28;20443;-74
2022/10/12 01:48:54;;;;;;;35.03;11.55;;;;;;;;;;1024907;28;20031;-74
2022/10/12 01:49:29;;;;;;;33.00;10.43;;;;;;;;;;1025364;28;20461;-74
2022/10/12 01:50:01;;;;;;;32.10;11.57;;;;;;;;;;1030374;28;20026;-74
2022/10/12 01:50:53;;;;;;;26.60;9.38;;;;;;;;;;1027150;28;20034;-74
2022/10/12 01:51:26;;;;;;;33.95;8.32;;;;;;;;;;1024871;28;20027;-74
2022/10/12 01:51:57;;;;;;;39.33;9.80;;;;;;;;;;1029096;28;20026;-74
2022/10/12 01:52:29;;;;;;;22.20;9.23;;;;;;;;;;1024148;28;20027;-75
2022/10/12 01:52:59;;;;;;;35.65;9.88;;;;;;;;;;1021985;28;20581;-74
2022/10/12 01:53:40;;;;;;;20.40;9.68;;;;;;;;;;1025629;28;20034;-74
2022/10/12 01:54:17;;;;;;;34.65;8.90;;;;;;;;;;1024780;28;20033;-75
2022/10/12 01:55:06;;;;;;;44.00;10.18;;;;;;;;;;1026975;28;21187;-75
2022/10/12 01:55:50;;;;;;;20.60;9.73;;;;;;;;;;1028951;28;20154;-75
2022/10/12 01:56:27;;;;;;;35.50;11.25;;;;;;;;;;1029454;28;20309;-75
2022/10/12 01:56:58;;;;;;;34.78;10.68;;;;;;;;;;1029650;28;20482;-75
2022/10/12 01:57:41;;;;;;;32.15;10.18;;;;;;;;;;1027458;28;20121;-75
2022/10/12 01:58:14;;;;;;;34.22;11.95;;;;;;;;;;1030044;28;20081;-75
2022/10/12 01:58:56;;;;;;;46.15;10.57;;;;;;;;;;1028766;28;20703;-75
2022/10/12 01:59:29;;;;;;;29.98;10.20;;;;;;;;;;1029087;28;20034;-75
2022/10/12 02:00:03;;;;;;;25.38;10.73;;;;;;;;;;1028489;28;20030;-75
2022/10/12 02:00:40;;;;;;;37.30;9.55;;;;;;;;;;1029086;28;20030;-75
2022/10/12 02:01:25;;;;;;;29.92;10.43;;;;;;;;;;1029369;28;20030;-75
2022/10/12 02:02:02;;;;;;;35.75;10.32;;;;;;;;;;1028455;28;20030;-75
2022/10/12 02:02:32;;;;;;;34.30;10.68;;;;;;;;;;1029031;28;20031;-75
2022/10/12 02:03:13;;;;;;;30.48;12.63;;;;;;;;;;1028358;28;20026;-75
2022/10/12 02:03:46;;;;;;;33.13;9.90;;;;;;;;;;1028256;28;20038;-75
2022/10/12 02:04:32;;;;;;;24.23;9.30;;;;;;;;;;1028093;28;20026;-75
2022/10/12 02:05:13;;;;;;;42.55;10.52;;;;;;;;;;1028412;28;20475;-75
2022/10/12 02:05:51;;;;;;;35.25;9.85;;;;;;;;;;1029720;28;20030;-75
2022/10/12 02:06:27;;;;;;;19.95;9.80;;;;;;;;;;1031454;28;20037;-76
2022/10/12 02:07:03;;;;;;;26.50;8.68;;;;;;;;;;1028068;28;20037;-76
2022/10/12 02:07:40;;;;;;;31.85;10.50;;;;;;;;;;1021824;28;20142;-76
2022/10/12 02:08:13;;;;;;;61.10;11.95;;;;;;;;;;1026845;28;20018;-76
2022/10/12 02:08:54;;;;;;;45.92;10.00;;;;;;;;;;1029587;28;20030;-75
2022/10/12 02:09:29;;;;;;;19.65;8.40;;;;;;;;;;1027590;28;20065;-75
2022/10/12 02:10:01;;;;;;;18.88;9.93;;;;;;;;;;1023989;28;20034;-75
2022/10/12 02:10:40;;;;;;;37.15;12.52;;;;;;;;;;1024719;28;20023;-75
2022/10/12 02:11:12;;;;;;;24.25;10.07;;;;;;;;;;1021239;28;20039;-74
2022/10/12 02:11:44;;;;;;;38.78;9.38;;;;;;;;;;1021488;28;20220;-75
2022/10/12 02:12:17;;;;;;;34.40;9.52;;;;;;;;;;1026521;28;20069;-75
2022/10/12 02:12:48;;;;;;;27.05;10.15;;;;;;;;;;1027270;28;20108;-75
2022/10/12 02:13:20;;;;;;;38.53;8.82;;;;;;;;;;1030045;28;20458;-75
2022/10/12 02:14:00;;;;;;;22.63;8.60;;;;;;;;;;1030058;28;20082;-75
2022/10/12 02:14:37;;;;;;;35.92;9.05;;;;;;;;;;1028553;28;20659;-75
2022/10/12 02:15:10;;;;;;;;;;;;;;;;;;1028493;28;20030;-75
2022/10/12 02:15:42;;;;;;;36.72;11.40;;;;;;;;;;1028970;28;20448;-76
2022/10/12 02:16:15;;;;;;;29.58;7.90;;;;;;;;;;1030985;28;20029;-76
2022/10/12 02:16:51;;;;;;;30.00;9.25;;;;;;;;;;1030777;28;20526;-75
2022/10/12 02:17:22;;;;;;;19.77;9.18;;;;;;;;;;1030066;28;20023;-75
2022/10/12 02:17:53;;;;;;;35.63;9.95;;;;;;;;;;1030882;28;20014;-75
2022/10/12 02:18:24;;;;;;;23.85;9.32;;;;;;;;;;1031890;28;20101;-76
2022/10/12 02:18:54;;;;;;;34.67;11.85;;;;;;;;;;1031710;28;20431;-75
2022/10/12 02:19:26;;;;;;;34.35;11.25;;;;;;;;;;1026691;28;20015;-75
2022/10/12 02:20:00;;;;;;;20.30;8.90;;;;;;;;;;1026900;28;20070;-75
2022/10/12 02:20:32;;;;;;;48.45;12.75;;;;;;;;;;1024075;28;20019;-75
2022/10/12 02:21:04;;;;;;;42.13;12.60;;;;;;;;;;1028061;28;20025;-75
2022/10/12 02:21:35;;;;;;;28.40;10.70;;;;;;;;;;1027259;28;20457;-75
2022/10/12 02:22:07;;;;;;;36.35;10.73;;;;;;;;;;1026772;28;20027;-75
2022/10/12 02:22:40;;;;;;;44.33;11.85;;;;;;;;;;1026461;28;20015;-75
2022/10/12 02:23:11;;;;;;;33.95;10.45;;;;;;;;;;1029034;28;20126;-75
2022/10/12 02:23:43;;;;;;;38.63;11.77;;;;;;;;;;1030034;28;20481;-75
2022/10/12 02:24:14;;;;;;;30.95;12.30;;;;;;;;;;1029603;28;20662;-75
2022/10/12 02:24:48;;;;;;;35.22;9.10;;;;;;;;;;1030469;28;20117;-75
2022/10/12 02:25:20;;;;;;;27.27;10.35;;;;;;;;;;1031342;28;20376;-75
2022/10/12 02:25:52;;;;;;;37.45;9.48;;;;;;;;;;1031323;28;20034;-75
2022/10/12 02:26:26;;;;;;;39.00;11.73;;;;;;;;;;1031623;28;20160;-75
2022/10/12 02:26:57;;;;;;;20.20;10.23;;;;;;;;;;1029660;28;20034;-75
2022/10/12 02:27:28;;;;;;;25.38;9.27;;;;;;;;;;1030643;28;20030;-75
2022/10/12 02:28:04;;;;;;;21.65;10.68;;;;;;;;;;1029179;28;20030;-75
2022/10/12 02:28:36;;;;;;;38.58;9.80;;;;;;;;;;1029462;28;20038;-75
2022/10/12 02:29:09;;;;;;;26.05;9.77;;;;;;;;;;1030573;28;20114;-74
2022/10/12 02:29:41;;;;;;;39.28;8.63;;;;;;;;;;1029895;28;20126;-75
2022/10/12 02:30:11;;;;;;;30.08;8.10;;;;;;;;;;1030212;28;20563;-75
2022/10/12 02:31:00;;;;;;;33.42;8.90;;;;;;;;;;1030357;28;20026;-75
2022/10/12 02:31:34;;;;;;;24.15;8.25;;;;;;;;;;1029366;28;20569;-75
2022/10/12 02:32:04;;;;;;;34.10;9.48;;;;;;;;;;1028956;28;20026;-74
2022/10/12 02:32:38;;;;;;;40.58;12.88;;;;;;;;;;1030203;28;20022;-74
2022/10/12 02:33:13;;;;;;;46.58;10.85;;;;;;;;;;1030694;28;20037;-75
2022/10/12 02:33:53;;;;;;;34.47;8.23;;;;;;;;;;1029446;28;20038;-74
2022/10/12 02:34:36;;;;;;;33.03;9.20;;;;;;;;;;1029236;28;20069;-76
2022/10/12 02:35:06;;;;;;;32.38;10.18;;;;;;;;;;1030753;28;20023;-75
2022/10/12 02:35:40;;;;;;;25.35;8.23;;;;;;;;;;1028465;28;20022;-76
2022/10/12 02:36:13;;;;;;;49.00;9.43;;;;;;;;;;1028915;28;20034;-74
2022/10/12 02:36:46;;;;;;;30.80;8.68;;;;;;;;;;1029268;28;20038;-73
2022/10/12 02:37:28;;;;;;;26.08;9.30;;;;;;;;;;1026885;28;20040;-76
2022/10/12 02:38:10;;;;;;;38.15;9.68;;;;;;;;;;1027810;28;20026;-75
2022/10/12 02:38:48;;;;;;;33.72;10.27;;;;;;;;;;1027425;28;20037;-75
2022/10/12 02:39:18;;;;;;;31.65;9.15;;;;;;;;;;1027891;28;20422;-75
2022/10/12 02:39:56;;;;;;;38.55;10.38;;;;;;;;;;1028325;28;20026;-75
2022/10/12 02:40:26;;;;;;;21.52;8.07;;;;;;;;;;1028980;28;20537;-75
2022/10/12 02:41:05;;;;;;;20.30;8.65;;;;;;;;;;1028809;28;20027;-75
2022/10/12 02:41:39;;;;;;;37.03;7.65;;;;;;;;;;1027952;28;20161;-75
2022/10/12 02:42:12;;;;;;;28.95;9.05;;;;;;;;;;1027666;28;20490;-75
2022/10/12 02:42:47;;;;;;;18.20;7.07;;;;;;;;;;1027607;28;20133;-75
2022/10/12 02:43:30;;;;;;;39.20;8.20;;;;;;;;;;1026241;28;20030;-74
2022/10/12 02:44:03;;;;;;;24.23;8.35;;;;;;;;;;1022575;28;20026;-75
2022/10/12 02:44:36;;;;;;;34.28;10.07;;;;;;;;;;1024760;28;20438;-76
2022/10/12 02:45:07;;;;;;;27.38;8.00;;;;;;;;;;1024410;28;20697;-76
2022/10/12 02:45:40;;;;;;;30.45;8.70;;;;;;;;;;1027369;28;20018;-74
2022/10/12 02:46:11;;;;;;;35.85;7.05;;;;;;;;;;1030595;28;20504;-74
2022/10/12 02:46:43;;;;;;;21.17;10.18;;;;;;;;;;1031984;28;20572;-75
2022/10/12 02:47:14;;;;;;;19.23;8.20;;;;;;;;;;1029430;28;20022;-74
2022/10/12 02:47:46;;;;;;;32.40;9.68;;;;;;;;;;1028778;28;20455;-74
2022/10/12 02:48:19;;;;;;;26.30;7.10;;;;;;;;;;1027934;28;20019;-74
2022/10/12 02:48:52;;;;;;;17.08;6.80;;;;;;;;;;1029609;28;20019;-73
2022/10/12 02:49:25;;;;;;;23.83;7.00;;;;;;;;;;1029284;28;20041;-74
2022/10/12 02:49:57;;;;;;;16.50;7.00;;;;;;;;;;1028362;28;20060;-75
2022/10/12 02:50:29;;;;;;;17.77;7.32;;;;;;;;;;1028327;28;20023;-74
2022/10/12 02:51:00;;;;;;;44.03;7.43;;;;;;;;;;1023491;28;20517;-76
2022/10/12 02:51:32;;;;;;;23.65;6.60;;;;;;;;;;1025759;28;20415;-76
2022/10/12 02:52:04;;;;;;;17.33;6.00;;;;;;;;;;1025227;28;20082;-77
2022/10/12 02:52:35;;;;;;;20.80;7.25;;;;;;;;;;1024818;28;20105;-74
2022/10/12 02:53:11;;;;;;;16.08;6.43;;;;;;;;;;1022479;28;20409;-73
2022/10/12 02:53:44;;;;;;;29.73;10.82;;;;;;;;;;1022325;28;20023;-75
2022/10/12 02:54:15;;;;;;;30.88;6.85;;;;;;;;;;1025436;28;20031;-75
2022/10/12 02:54:46;;;;;;;26.90;6.68;;;;;;;;;;1022558;28;20531;-76
2022/10/12 02:55:16;;;;;;;19.45;7.25;;;;;;;;;;1028413;28;20035;-77
2022/10/12 02:55:51;;;;;;;14.38;6.80;;;;;;;;;;1026377;28;20493;-77
2022/10/12 02:56:22;;;;;;;34.22;8.18;;;;;;;;;;1029075;28;20026;-76
2022/10/12 02:56:53;;;;;;;30.88;8.68;;;;;;;;;;1026088;28;20586;-75
2022/10/12 02:57:24;;;;;;;13.57;6.05;;;;;;;;;;1026257;28;20121;-75
2022/10/12 02:57:58;;;;;;;16.80;5.63;;;;;;;;;;1022962;28;21303;-75
2022/10/12 02:58:29;;;;;;;22.05;8.32;;;;;;;;;;1023139;28;20027;-75
2022/10/12 02:59:03;;;;;;;25.95;7.80;;;;;;;;;;1023655;28;20543;-77
2022/10/12 02:59:37;;;;;;;16.60;5.43;;;;;;;;;;1023706;28;20037;-76
2022/10/12 03:00:08;;;;;;;20.45;6.18;;;;;;;;;;1023841;28;20026;-75
2022/10/12 03:00:39;;;;;;;17.77;6.10;;;;;;;;;;1024818;28;20019;-76
2022/10/12 03:01:09;;;;;;;27.35;6.13;;;;;;;;;;1034001;23;20518;-75
2022/10/12 03:01:40;;;;;;;16.33;6.65;;;;;;;;;;1025411;28;20077;-75
2022/10/12 03:02:11;;;;;;;25.60;6.63;;;;;;;;;;1026695;28;20027;-75
2022/10/12 03:02:42;;;;;;;30.88;6.43;;;;;;;;;;1026007;28;20350;-75
2022/10/12 03:03:12;;;;;;;37.47;6.13;;;;;;;;;;1027941;28;20023;-74
2022/10/12 03:03:44;;;;;;;33.90;10.48;;;;;;;;;;1023139;28;20566;-74
2022/10/12 03:04:15;;;;;;;16.67;6.53;;;;;;;;;;1021723;28;20031;-75
2022/10/12 03:04:48;;;;;;;15.07;6.47;;;;;;;;;;1021242;28;20058;-76
2022/10/12 03:05:19;;;;;;;23.20;6.15;;;;;;;;;;1025104;28;20030;-76
2022/10/12 03:05:51;;;;;;;27.30;6.32;;;;;;;;;;1022377;28;20059;-76
2022/10/12 03:06:22;;;;;;;38.50;8.00;;;;;;;;;;1021647;29;20023;-76
2022/10/12 03:06:53;;;;;;;30.95;8.02;;;;;;;;;;1019776;29;20093;-75
2022/10/12 03:07:24;;;;;;;28.35;7.15;;;;;;;;;;1021844;28;20039;-76
2022/10/12 03:07:54;;;;;;;25.60;5.90;;;;;;;;;;1024622;28;20057;-75
2022/10/12 03:08:25;;;;;;;19.70;8.00;;;;;;;;;;1025142;28;20057;-75
2022/10/12 03:08:56;;;;;;;39.45;6.55;;;;;;;;;;1023559;28;20587;-76
2022/10/12 03:09:27;;;;;;;23.73;6.15;;;;;;;;;;1022807;28;20526;-76
2022/10/12 03:09:59;;;;;;;27.15;5.13;;;;;;;;;;1020055;28;20026;-75
2022/10/12 03:10:30;;;;;;;26.60;5.68;;;;;;;;;;1020064;28;20026;-75
2022/10/12 03:11:02;;;;;;;30.58;6.97;;;;;;;;;;1020230;28;20023;-76
2022/10/12 03:11:33;;;;;;;28.83;6.53;;;;;;;;;;1023667;28;20466;-75
2022/10/12 03:12:04;;;;;;;37.40;8.25;;;;;;;;;;1025968;28;20652;-75
2022/10/12 03:12:34;;;;;;;20.50;7.07;;;;;;;;;;1020548;28;20434;-76
2022/10/12 03:13:07;;;;;;;29.30;7.85;;;;;;;;;;1021435;28;20165;-76
2022/10/12 03:13:38;;;;;;;31.90;9.70;;;;;;;;;;1021078;28;20427;-74
2022/10/12 03:14:10;;;;;;;26.25;6.25;;;;;;;;;;1024079;28;20014;-74
2022/10/12 03:14:41;;;;;;;35.00;7.45;;;;;;;;;;1023080;28;20582;-75
2022/10/12 03:15:12;;;;;;;29.42;8.38;;;;;;;;;;1024628;28;20029;-75
2022/10/12 03:15:49;;;;;;;29.00;7.43;;;;;;;;;;1024058;28;20443;-76
2022/10/12 03:16:20;;;;;;;26.92;7.43;;;;;;;;;;1026100;28;20027;-76
2022/10/12 03:16:55;;;;;;;28.92;8.98;;;;;;;;;;1024959;28;20029;-75
2022/10/12 03:17:26;;;;;;;34.53;8.73;;;;;;;;;;1022938;28;20027;-75
2022/10/12 03:17:57;;;;;;;23.65;6.60;;;;;;;;;;1025540;28;20027;-75